Time;durP1;ratioP1;P1;durP2;ratioP2;P2;SDS_P1;SDS_P2;PMS_P1;PMS_P2;Temp;Humidity;BMP_temperature;BMP_pressure;BME280_temperature;BME280_humidity;BME280_pressure;Samples;Min_cycle;Max_cycle;Signal;HPM_P1;HPM_P2
2023/10/31 00:02:32;;;;;;;;;;;10.00;99.90;;;;;;21386153;27;20486;-80
2023/10/31 00:12:33;;;;;;;;;;;9.90;99.90;;;;;;21369830;27;19915;-79
2023/10/31 00:22:34;;;;;;;;;;;10.00;99.90;;;;;;21395395;27;19911;-79
2023/10/31 00:32:34;;;;;;;;;;;9.90;99.90;;;;;;21397917;27;20288;-79
2023/10/31 00:42:35;;;;;;;;;;;9.80;99.90;;;;;;21391079;27;20333;-79
2023/10/31 00:52:35;;;;;;;;;;;9.70;99.90;;;;;;21378718;27;19934;-79
2023/10/31 01:02:36;;;;;;;;;;;9.50;99.90;;;;;;21382403;27;19966;-79
2023/10/31 01:12:37;;;;;;;;;;;9.50;99.90;;;;;;21390978;27;20051;-79
2023/10/31 01:22:37;;;;;;;;;;;9.40;99.90;;;;;;21392729;27;19967;-78
2023/10/31 01:32:38;;;;;;;;;;;9.40;99.90;;;;;;21390518;27;19950;-78
2023/10/31 01:42:39;;;;;;;;;;;9.40;99.90;;;;;;21392144;27;20371;-81
2023/10/31 01:52:39;;;;;;;;;;;9.50;99.90;;;;;;21380308;27;20005;-78
2023/10/31 02:02:42;;;;;;;;;;;9.60;99.90;;;;;;21399767;27;19917;-80
2023/10/31 02:12:42;;;;;;;;;;;9.50;99.90;;;;;;21354762;27;19915;-80
2023/10/31 02:22:44;;;;;;;;;;;9.60;99.90;;;;;;21379518;27;19957;-79
2023/10/31 02:32:45;;;;;;;;;;;9.60;99.90;;;;;;21401082;27;19914;-78
2023/10/31 02:42:46;;;;;;;;;;;9.60;99.90;;;;;;21405232;27;19910;-80
2023/10/31 02:52:46;;;;;;;;;;;9.60;99.90;;;;;;21369783;27;20288;-79
2023/10/31 03:02:47;;;;;;;;;;;9.70;99.90;;;;;;21351302;27;19915;-78
2023/10/31 03:12:48;;;;;;;;;;;9.70;99.90;;;;;;21410050;27;20297;-79
2023/10/31 03:22:48;;;;;;;;;;;9.70;99.90;;;;;;21390812;27;19915;-79
2023/10/31 03:32:49;;;;;;;;;;;9.60;99.90;;;;;;21375763;27;19921;-79
2023/10/31 03:42:50;;;;;;;;;;;9.60;99.90;;;;;;21369502;27;19915;-78
2023/10/31 03:52:50;;;;;;;;;;;9.60;99.90;;;;;;21392772;27;20288;-80
2023/10/31 04:02:51;;;;;;;;;;;9.50;99.90;;;;;;21399249;27;19911;-80
2023/10/31 04:12:52;;;;;;;;;;;9.40;99.90;;;;;;21412647;27;20366;-80
2023/10/31 04:22:52;;;;;;;;;;;9.30;99.90;;;;;;21358892;27;20002;-80
2023/10/31 04:32:53;;;;;;;;;;;9.20;99.90;;;;;;21395121;27;19914;-80
2023/10/31 04:42:54;;;;;;;;;;;9.20;99.90;;;;;;21389559;27;19911;-80
2023/10/31 04:52:55;;;;;;;;;;;9.10;99.90;;;;;;21377272;27;20364;-80
2023/10/31 05:02:56;;;;;;;;;;;9.10;99.90;;;;;;21365967;27;19918;-80
2023/10/31 05:12:57;;;;;;;;;;;9.00;99.90;;;;;;21398918;27;19915;-80
2023/10/31 05:22:58;;;;;;;;;;;8.90;99.90;;;;;;21376914;27;20063;-80
2023/10/31 05:32:58;;;;;;;;;;;8.80;99.90;;;;;;21415075;27;19954;-79
2023/10/31 05:42:59;;;;;;;;;;;8.90;99.90;;;;;;21416768;27;19911;-80
2023/10/31 05:53:01;;;;;;;;;;;8.80;99.90;;;;;;21422196;27;20220;-79
2023/10/31 06:03:02;;;;;;;;;;;8.80;99.90;;;;;;21427698;27;19911;-79
2023/10/31 06:13:03;;;;;;;;;;;9.00;99.90;;;;;;21400551;27;20277;-80
2023/10/31 06:23:03;;;;;;;;;;;8.90;99.90;;;;;;21419131;27;19911;-79
2023/10/31 06:33:04;;;;;;;;;;;8.90;99.90;;;;;;21413648;27;20531;-80
2023/10/31 06:43:05;;;;;;;;;;;9.00;99.90;;;;;;21417439;27;19919;-80
2023/10/31 06:53:05;;;;;;;;;;;9.00;99.90;;;;;;21382490;27;19914;-79
2023/10/31 07:03:09;;;;;;;;;;;9.00;99.90;;;;;;21345076;27;19992;-79
2023/10/31 07:13:09;;;;;;;;;;;9.00;99.90;;;;;;21385195;27;19930;-80
2023/10/31 07:23:10;;;;;;;;;;;8.90;99.90;;;;;;21331721;27;19911;-79
2023/10/31 07:33:10;;;;;;;;;;;8.90;99.90;;;;;;21357831;27;19921;-80
2023/10/31 07:43:12;;;;;;;;;;;9.00;99.90;;;;;;21345766;27;20387;-80
2023/10/31 07:53:13;;;;;;;;;;;9.00;99.90;;;;;;21345736;27;19938;-78
2023/10/31 08:03:13;;;;;;;;;;;9.10;99.90;;;;;;21374636;27;19915;-80
2023/10/31 08:13:14;;;;;;;;;;;9.10;99.90;;;;;;21390436;27;19919;-80
2023/10/31 08:23:15;;;;;;;;;;;9.20;99.90;;;;;;21384121;27;19959;-78
2023/10/31 08:33:15;;;;;;;;;;;9.30;99.90;;;;;;21374225;27;19967;-81
2023/10/31 08:43:16;;;;;;;;;;;9.40;99.90;;;;;;21355181;27;20270;-80
2023/10/31 08:53:19;;;;;;;;;;;9.40;99.90;;;;;;21398586;27;19972;-79
2023/10/31 09:03:19;;;;;;;;;;;9.60;99.90;;;;;;21383967;27;19918;-78
2023/10/31 09:13:20;;;;;;;;;;;9.60;99.90;;;;;;21397577;27;19923;-78
2023/10/31 09:23:20;;;;;;;;;;;9.90;99.90;;;;;;21398760;27;19950;-79
2023/10/31 09:33:21;;;;;;;;;;;10.10;99.90;;;;;;21361142;27;20315;-79
2023/10/31 09:43:22;;;;;;;;;;;10.30;99.90;;;;;;21392052;27;19911;-78
2023/10/31 09:53:23;;;;;;;;;;;11.60;99.90;;;;;;21391643;27;20328;-78
2023/10/31 10:03:24;;;;;;;;;;;12.10;99.90;;;;;;21363742;27;19917;-79
2023/10/31 10:13:24;;;;;;;;;;;11.70;99.90;;;;;;21385450;27;19914;-79
2023/10/31 10:23:26;;;;;;;;;;;11.50;99.90;;;;;;21370449;27;19931;-79
2023/10/31 10:33:26;;;;;;;;;;;11.40;99.90;;;;;;21361968;27;20490;-79
2023/10/31 10:43:28;;;;;;;;;;;11.90;99.90;;;;;;21358279;27;19942;-79
2023/10/31 10:53:30;;;;;;;;;;;11.80;99.90;;;;;;21348182;27;19915;-79
2023/10/31 11:03:31;;;;;;;;;;;11.60;99.90;;;;;;21372931;27;19922;-79
2023/10/31 11:13:32;;;;;;;;;;;11.40;99.90;;;;;;21371538;27;20380;-79
2023/10/31 11:23:33;;;;;;;;;;;11.20;99.90;;;;;;21387731;27;19978;-79
2023/10/31 11:33:38;;;;;;;;;;;11.40;99.90;;;;;;21385148;27;19915;-78
2023/10/31 11:43:39;;;;;;;;;;;11.70;99.90;;;;;;21391338;27;20005;-79
2023/10/31 11:53:40;;;;;;;;;;;11.70;99.90;;;;;;21347321;27;19922;-81
2023/10/31 12:03:41;;;;;;;;;;;11.40;99.90;;;;;;21388880;27;19910;-80
2023/10/31 12:13:54;;;;;;;;;;;11.30;99.90;;;;;;21368823;27;19929;-81
2023/10/31 12:24:01;;;;;;;;;;;11.50;99.90;;;;;;21318628;27;19910;-82
2023/10/31 12:34:05;;;;;;;;;;;11.50;99.90;;;;;;21338342;27;20373;-81
2023/10/31 12:44:09;;;;;;;;;;;11.60;99.90;;;;;;21370847;27;19919;-81
2023/10/31 12:54:10;;;;;;;;;;;11.70;99.90;;;;;;21368761;27;19915;-80
2023/10/31 13:04:11;;;;;;;;;;;11.20;99.90;;;;;;21311423;27;19922;-80
2023/10/31 13:14:13;;;;;;;;;;;11.30;99.90;;;;;;21350125;27;19923;-79
2023/10/31 13:24:14;;;;;;;;;;;11.30;99.90;;;;;;21319931;27;20423;-82
2023/10/31 13:34:14;;;;;;;;;;;11.20;99.90;;;;;;21352615;27;19919;-81
2023/10/31 13:44:15;;;;;;;;;;;11.10;99.90;;;;;;21365227;27;20055;-80
2023/10/31 13:54:15;;;;;;;;;;;11.10;99.90;;;;;;21329104;27;19922;-80
2023/10/31 14:04:17;;;;;;;;;;;10.90;99.90;;;;;;21364953;27;19993;-81
2023/10/31 14:14:18;;;;;;;;;;;11.00;99.90;;;;;;21357470;27;20006;-81
2023/10/31 14:24:19;;;;;;;;;;;11.00;99.90;;;;;;21364353;27;20275;-80
2023/10/31 14:34:22;;;;;;;;;;;11.10;99.90;;;;;;21380344;27;19924;-80
2023/10/31 14:44:23;;;;;;;;;;;11.00;99.90;;;;;;21373204;27;19911;-78
2023/10/31 14:54:25;;;;;;;;;;;11.00;99.90;;;;;;21354958;27;19915;-79
2023/10/31 15:04:25;;;;;;;;;;;10.90;99.90;;;;;;21367890;27;19910;-81
2023/10/31 15:14:26;;;;;;;;;;;10.90;99.90;;;;;;21342401;27;19959;-80
2023/10/31 15:24:30;;;;;;;;;;;11.10;99.90;;;;;;21372655;27;19910;-80
2023/10/31 15:34:31;;;;;;;;;;;11.10;99.90;;;;;;21341066;27;19915;-79
2023/10/31 15:44:32;;;;;;;;;;;11.00;99.90;;;;;;21358255;27;19979;-79
2023/10/31 15:54:32;;;;;;;;;;;10.90;99.90;;;;;;21347575;27;19915;-79
2023/10/31 16:04:33;;;;;;;;;;;10.90;99.90;;;;;;21345791;27;20358;-79
2023/10/31 16:14:34;;;;;;;;;;;10.80;99.90;;;;;;21344169;27;19967;-79
2023/10/31 16:24:34;;;;;;;;;;;10.70;99.90;;;;;;21347331;27;19918;-78
2023/10/31 16:34:35;;;;;;;;;;;10.70;99.90;;;;;;21345159;27;19922;-79
2023/10/31 16:44:36;;;;;;;;;;;10.60;99.90;;;;;;21347345;27;19911;-78
2023/10/31 16:54:36;;;;;;;;;;;10.60;99.90;;;;;;21343202;27;19915;-79
2023/10/31 17:04:37;;;;;;;;;;;10.60;99.90;;;;;;21344327;27;19972;-79
2023/10/31 17:14:38;;;;;;;;;;;10.60;99.90;;;;;;21359163;27;19960;-78
2023/10/31 17:24:38;;;;;;;;;;;10.60;99.90;;;;;;21364983;27;19931;-79
2023/10/31 17:34:39;;;;;;;;;;;10.70;99.90;;;;;;21359437;27;19925;-80
2023/10/31 17:44:40;;;;;;;;;;;10.70;99.90;;;;;;21361890;27;19911;-78
2023/10/31 17:54:41;;;;;;;;;;;10.70;99.90;;;;;;21372585;27;19948;-80
2023/10/31 18:04:43;;;;;;;;;;;10.70;99.90;;;;;;21359284;27;20275;-78
2023/10/31 18:14:44;;;;;;;;;;;10.60;99.90;;;;;;21375670;27;19922;-79
2023/10/31 18:24:44;;;;;;;;;;;10.60;99.90;;;;;;21367145;27;19947;-79
2023/10/31 18:34:45;;;;;;;;;;;10.50;99.90;;;;;;21360721;27;19915;-80
2023/10/31 18:44:46;;;;;;;;;;;10.40;99.90;;;;;;21353302;27;19918;-78
2023/10/31 18:54:46;;;;;;;;;;;10.20;99.90;;;;;;21349678;27;19915;-78
2023/10/31 19:04:47;;;;;;;;;;;10.10;99.90;;;;;;21347685;27;19919;-78
2023/10/31 19:14:48;;;;;;;;;;;9.90;99.90;;;;;;21353877;27;19921;-78
2023/10/31 19:24:50;;;;;;;;;;;9.40;99.90;;;;;;21361271;27;19918;-79
2023/10/31 19:34:50;;;;;;;;;;;9.00;99.90;;;;;;21360561;27;19915;-79
2023/10/31 19:44:51;;;;;;;;;;;8.80;99.90;;;;;;21355369;27;19957;-78
2023/10/31 19:54:52;;;;;;;;;;;8.60;99.90;;;;;;21367206;27;19922;-79
2023/10/31 20:04:52;;;;;;;;;;;8.30;99.90;;;;;;21350603;27;19974;-79
2023/10/31 20:14:53;;;;;;;;;;;8.10;99.90;;;;;;21348392;27;19922;-78
2023/10/31 20:24:54;;;;;;;;;;;7.60;99.90;;;;;;21382556;27;19918;-80
2023/10/31 20:34:55;;;;;;;;;;;7.30;99.90;;;;;;21374507;27;19997;-80
2023/10/31 20:44:56;;;;;;;;;;;7.20;99.90;;;;;;21364012;27;19964;-79
2023/10/31 20:54:57;;;;;;;;;;;7.10;99.90;;;;;;21373304;27;19915;-79
2023/10/31 21:04:57;;;;;;;;;;;7.10;99.90;;;;;;21375059;27;19918;-78
2023/10/31 21:14:58;;;;;;;;;;;6.90;99.90;;;;;;21353147;27;19915;-77
2023/10/31 21:24:59;;;;;;;;;;;6.80;99.90;;;;;;21320557;27;20313;-77
2023/10/31 21:34:59;;;;;;;;;;;6.90;99.90;;;;;;21322852;27;19919;-79
2023/10/31 21:45:00;;;;;;;;;;;6.80;99.90;;;;;;21348672;27;19956;-77
2023/10/31 21:55:01;;;;;;;;;;;6.60;99.90;;;;;;21353946;27;19980;-77
2023/10/31 22:05:02;;;;;;;;;;;6.60;99.90;;;;;;21360800;27;19994;-77
2023/10/31 22:15:04;;;;;;;;;;;6.70;99.90;;;;;;21340482;27;19922;-79
2023/10/31 22:25:04;;;;;;;;;;;6.90;99.90;;;;;;21357441;27;19911;-80
2023/10/31 22:35:05;;;;;;;;;;;6.90;99.90;;;;;;21364548;27;19937;-79
2023/10/31 22:45:06;;;;;;;;;;;7.10;99.90;;;;;;21364427;27;19911;-79
2023/10/31 22:55:07;;;;;;;;;;;7.30;99.90;;;;;;21362229;27;19940;-80
2023/10/31 23:05:10;;;;;;;;;;;7.40;99.90;;;;;;21365817;27;19918;-79
2023/10/31 23:15:13;;;;;;;;;;;7.40;99.90;;;;;;21377268;27;19914;-79
2023/10/31 23:25:14;;;;;;;;;;;7.40;99.90;;;;;;21372362;27;19911;-80
2023/10/31 23:35:15;;;;;;;;;;;7.50;99.90;;;;;;21361950;27;19926;-79
2023/10/31 23:45:16;;;;;;;;;;;7.60;99.90;;;;;;21361804;27;20362;-80
2023/10/31 23:55:16;;;;;;;;;;;7.50;99.90;;;;;;21362399;27;20018;-80
